Time;durP1;ratioP1;P1;durP2;ratioP2;P2;SDS_P1;SDS_P2;PMS_P1;PMS_P2;Temp;Humidity;BMP_temperature;BMP_pressure;BME280_temperature;BME280_humidity;BME280_pressure;Samples;Min_cycle;Max_cycle;Signal;HPM_P1;HPM_P2
2022/03/12 00:02:35;;;;;;;9.38;5.40;;;6.90;51.50;;;;;;4872658;29;20512;-84
2022/03/12 00:05:20;;;;;;;11.80;5.75;;;6.90;51.50;;;;;;4886415;29;20047;-84
2022/03/12 00:08:05;;;;;;;10.57;5.72;;;6.90;51.80;;;;;;4886432;29;20406;-84
2022/03/12 00:10:51;;;;;;;11.82;5.93;;;6.90;51.80;;;;;;4886012;29;20048;-84
2022/03/12 00:13:35;;;;;;;10.13;5.75;;;6.90;51.80;;;;;;4885792;29;20104;-84
2022/03/12 00:16:23;;;;;;;;;;;6.90;51.90;;;;;;4900838;29;20529;-84
2022/03/12 00:19:08;;;;;;;12.10;5.63;;;6.80;51.70;;;;;;4900514;29;19938;-84
2022/03/12 00:21:54;;;;;;;11.80;5.95;;;6.80;52.00;;;;;;4886285;29;20070;-84
2022/03/12 00:24:40;;;;;;;8.93;6.03;;;6.70;52.00;;;;;;4899924;29;20498;-85
2022/03/12 00:27:24;;;;;;;8.52;5.45;;;6.80;52.00;;;;;;4886343;29;20092;-84
2022/03/12 00:30:10;;;;;;;10.45;5.70;;;6.80;52.10;;;;;;4859828;29;20528;-84
2022/03/12 00:32:55;;;;;;;9.05;5.47;;;6.70;52.10;;;;;;4900274;29;20052;-84
2022/03/12 00:35:40;;;;;;;11.20;5.80;;;6.70;52.20;;;;;;4899875;29;20405;-84
2022/03/12 00:38:24;;;;;;;8.68;5.70;;;6.80;52.20;;;;;;4900139;29;20504;-84
2022/03/12 00:41:09;;;;;;;11.98;6.95;;;7.60;52.60;;;;;;4899437;29;20044;-84
2022/03/12 00:43:53;;;;;;;7.85;5.53;;;7.70;52.60;;;;;;4885403;29;20112;-84
2022/03/12 00:46:38;;;;;;;12.30;5.95;;;7.60;52.50;;;;;;4885244;29;20572;-84
2022/03/12 00:49:22;;;;;;;11.07;5.93;;;6.70;52.10;;;;;;4899829;29;20069;-84
2022/03/12 00:52:06;;;;;;;;;;;6.80;52.10;;;;;;4885893;29;20051;-84
2022/03/12 00:54:50;;;;;;;8.40;5.00;;;6.70;52.00;;;;;;4899207;29;20004;-84
2022/03/12 00:57:35;;;;;;;12.13;5.90;;;7.10;52.10;;;;;;4899258;29;20039;-84
2022/03/12 01:00:21;;;;;;;8.95;5.75;;;6.70;51.90;;;;;;4899624;29;20079;-84
2022/03/12 01:03:05;;;;;;;9.18;5.75;;;6.70;51.90;;;;;;4899475;29;20488;-85
2022/03/12 01:05:49;;;;;;;;;;;6.80;52.60;;;;;;4885146;29;20044;-84
2022/03/12 01:08:35;;;;;;;9.30;5.43;;;6.80;52.00;;;;;;4899055;29;19918;-85
2022/03/12 01:11:20;;;;;;;13.15;5.72;;;6.70;52.00;;;;;;4885223;29;20043;-84
2022/03/12 01:14:06;;;;;;;8.45;5.22;;;6.80;52.00;;;;;;4899303;29;20128;-84
2022/03/12 01:16:50;;;;;;;8.68;6.18;;;6.80;52.00;;;;;;4884619;29;20044;-84
2022/03/12 01:19:34;;;;;;;11.27;5.68;;;6.80;52.50;;;;;;4898766;29;20077;-86
2022/03/12 01:22:21;;;;;;;9.93;5.35;;;6.90;52.30;;;;;;4871861;29;20413;-84
2022/03/12 01:25:07;;;;;;;7.63;5.07;;;6.80;51.80;;;;;;4884936;29;20073;-84
2022/03/12 01:27:52;;;;;;;10.85;6.00;;;6.80;51.90;;;;;;4898693;29;20079;-84
2022/03/12 01:30:37;;;;;;;11.02;5.13;;;7.50;52.30;;;;;;4884383;29;20068;-85
2022/03/12 01:33:22;;;;;;;12.30;5.28;;;7.10;52.20;;;;;;4871819;29;20056;-84
2022/03/12 01:36:06;;;;;;;10.15;5.47;;;6.80;52.00;;;;;;4898840;29;20048;-84
2022/03/12 01:38:53;;;;;;;12.25;5.63;;;6.90;52.00;;;;;;4898404;29;20416;-84
2022/03/12 01:41:42;;;;;;;13.45;6.03;;;6.80;52.00;;;;;;4898115;29;20052;-85
2022/03/12 01:44:27;;;;;;;10.35;5.25;;;6.80;52.00;;;;;;4898856;29;20056;-83
2022/03/12 01:47:11;;;;;;;9.88;5.22;;;6.80;51.90;;;;;;4884470;29;20545;-83
2022/03/12 01:49:56;;;;;;;11.75;6.22;;;6.90;51.90;;;;;;4870877;29;20165;-84
2022/03/12 01:52:40;;;;;;;10.73;5.97;;;7.30;52.20;;;;;;4897470;29;20097;-85
2022/03/12 01:55:30;;;;;;;9.65;5.95;;;6.80;51.90;;;;;;4871344;29;20139;-84
2022/03/12 01:58:14;;;;;;;8.65;5.70;;;6.80;52.10;;;;;;4898462;29;20418;-84
2022/03/12 02:00:58;;;;;;;;;;;6.80;51.80;;;;;;4898396;29;20048;-84
2022/03/12 02:03:44;;;;;;;7.95;5.07;;;6.80;51.90;;;;;;4883847;29;19974;-84
2022/03/12 02:06:29;;;;;;;11.25;6.07;;;7.60;52.30;;;;;;4898422;29;20039;-84
2022/03/12 02:09:18;;;;;;;9.15;5.88;;;6.90;51.90;;;;;;4884068;29;20035;-84
2022/03/12 02:12:02;;;;;;;10.85;6.25;;;6.90;51.80;;;;;;4897829;29;20134;-83
2022/03/12 02:14:47;;;;;;;10.88;5.85;;;6.90;51.80;;;;;;4883745;29;20100;-84
2022/03/12 02:17:31;;;;;;;10.18;5.57;;;6.80;51.80;;;;;;4870926;29;20123;-83
2022/03/12 02:20:17;;;;;;;10.23;5.60;;;6.90;51.90;;;;;;4883929;29;20557;-84
2022/03/12 02:23:01;;;;;;;8.30;5.60;;;6.90;51.90;;;;;;4897552;29;20043;-84
2022/03/12 02:25:45;;;;;;;11.15;5.22;;;6.80;52.00;;;;;;4897707;29;20063;-84
2022/03/12 02:28:29;;;;;;;;;;;6.80;52.10;;;;;;4884341;29;20079;-84
2022/03/12 02:31:15;;;;;;;13.30;6.45;;;7.10;52.20;;;;;;4897995;29;19943;-84
2022/03/12 02:34:01;;;;;;;10.82;5.38;;;6.80;52.10;;;;;;4897509;29;20149;-84
2022/03/12 02:36:45;;;;;;;10.57;5.47;;;6.80;52.20;;;;;;4897455;29;20051;-85
2022/03/12 02:39:30;;;;;;;;;;;6.80;52.10;;;;;;4898250;29;20056;-84
2022/03/12 02:42:14;;;;;;;10.20;5.88;;;6.80;52.30;;;;;;4897709;29;20271;-84
2022/03/12 02:45:00;;;;;;;9.15;5.30;;;6.80;52.20;;;;;;4897352;29;20121;-84
2022/03/12 02:47:47;;;;;;;13.65;6.15;;;6.80;52.20;;;;;;4883420;29;20544;-87
2022/03/12 02:50:32;;;;;;;11.48;6.40;;;6.80;52.30;;;;;;4897802;29;20085;-84
2022/03/12 02:53:17;;;;;;;9.20;5.93;;;6.80;52.30;;;;;;4883528;29;20060;-84
2022/03/12 02:56:01;;;;;;;14.10;5.65;;;6.80;52.40;;;;;;4897249;29;20504;-84
2022/03/12 02:58:45;;;;;;;;;;;7.10;52.30;;;;;;4897996;29;20103;-86
2022/03/12 03:01:32;;;;;;;9.77;5.85;;;6.80;52.40;;;;;;4897731;29;19923;-84
2022/03/12 03:04:20;;;;;;;11.30;5.55;;;6.80;52.40;;;;;;4900093;29;20516;-84
2022/03/12 03:07:05;;;;;;;12.77;6.18;;;6.80;52.40;;;;;;4863972;29;20083;-85
2022/03/12 03:09:50;;;;;;;11.10;6.72;;;6.80;52.40;;;;;;4889426;29;20052;-86
2022/03/12 03:12:34;;;;;;;;;;;6.80;52.50;;;;;;4904381;29;20156;-84
2022/03/12 03:15:18;;;;;;;;;;;6.80;52.60;;;;;;4890182;29;20288;-84
2022/03/12 03:18:04;;;;;;;7.90;5.45;;;6.70;52.60;;;;;;4875918;29;19923;-84
2022/03/12 03:20:50;;;;;;;12.23;6.03;;;6.70;52.60;;;;;;4889394;29;20118;-86
2022/03/12 03:23:34;;;;;;;9.15;5.88;;;6.70;52.60;;;;;;4889614;29;20052;-84
2022/03/12 03:26:42;;;;;;;12.25;6.07;;;6.70;52.70;;;;;;4903833;29;20491;-84
2022/03/12 03:29:31;;;;;;;8.63;5.60;;;7.40;52.90;;;;;;4885215;29;20057;-84
2022/03/12 03:32:15;;;;;;;12.82;5.75;;;7.40;52.90;;;;;;4889169;29;20176;-84
2022/03/12 03:34:59;;;;;;;9.70;6.05;;;6.70;52.70;;;;;;4875848;29;20044;-84
2022/03/12 03:37:43;;;;;;;;;;;6.70;52.70;;;;;;4889889;29;20048;-84
2022/03/12 03:40:28;;;;;;;11.30;5.65;;;6.70;52.90;;;;;;4903762;29;19942;-84
2022/03/12 03:43:15;;;;;;;11.32;6.50;;;6.70;52.90;;;;;;4888808;29;20623;-84
2022/03/12 03:45:59;;;;;;;8.63;5.85;;;6.60;53.60;;;;;;4888873;29;20042;-84
2022/03/12 03:48:45;;;;;;;;;;;6.70;53.20;;;;;;4889777;29;20047;-84
2022/03/12 03:51:29;;;;;;;9.23;6.05;;;6.60;53.30;;;;;;4889407;29;19918;-84
2022/03/12 03:54:15;;;;;;;10.35;6.40;;;6.60;53.20;;;;;;4903025;29;20067;-85
2022/03/12 03:56:59;;;;;;;10.32;5.90;;;6.80;53.40;;;;;;4902953;29;20044;-84
2022/03/12 03:59:43;;;;;;;;;;;7.50;53.80;;;;;;4889736;29;20087;-84
2022/03/12 04:02:27;;;;;;;8.43;5.70;;;6.50;53.60;;;;;;4875940;29;20428;-84
2022/03/12 04:05:11;;;;;;;;;;;6.50;53.30;;;;;;4889133;29;20043;-84
2022/03/12 04:07:56;;;;;;;7.63;5.38;;;6.40;53.70;;;;;;4903036;29;19922;-85
2022/03/12 04:10:40;;;;;;;9.85;5.90;;;6.40;53.60;;;;;;4903436;29;20096;-85
2022/03/12 04:13:24;;;;;;;;;;;7.10;54.00;;;;;;4903697;29;20127;-84
2022/03/12 04:16:09;;;;;;;9.30;6.18;;;7.30;54.20;;;;;;4900556;29;19934;-84
2022/03/12 04:18:55;;;;;;;11.10;6.30;;;7.60;54.60;;;;;;4900291;29;20152;-84
2022/03/12 04:21:38;;;;;;;11.35;5.78;;;6.40;54.00;;;;;;4900384;29;20060;-84
2022/03/12 04:24:23;;;;;;;;;;;6.30;54.00;;;;;;4886267;29;20580;-84
2022/03/12 04:27:08;;;;;;;8.63;6.00;;;6.30;54.10;;;;;;4885530;29;19938;-84
2022/03/12 04:29:52;;;;;;;10.88;6.63;;;6.30;54.00;;;;;;4900135;29;20043;-84
2022/03/12 04:32:37;;;;;;;9.80;6.05;;;6.40;54.10;;;;;;4886159;29;20067;-84
2022/03/12 04:35:21;;;;;;;9.05;5.90;;;6.30;54.20;;;;;;4885413;29;20052;-84
2022/03/12 04:38:09;;;;;;;9.23;5.95;;;6.30;54.30;;;;;;4872350;29;20136;-84
2022/03/12 04:40:55;;;;;;;8.85;5.90;;;6.30;54.40;;;;;;4886364;29;20401;-84
2022/03/12 04:43:40;;;;;;;10.57;6.10;;;6.30;54.40;;;;;;4899831;29;20421;-84
2022/03/12 04:46:24;;;;;;;12.80;5.65;;;6.60;54.50;;;;;;4899793;29;20088;-84
2022/03/12 04:49:08;;;;;;;10.98;5.75;;;6.40;54.40;;;;;;4885353;29;20138;-84
2022/03/12 04:57:50;;;;;;;8.02;5.13;;;6.30;54.50;;;;;;5221829;23;20093;-82
2022/03/12 05:00:38;;;;;;;9.55;6.18;;;6.50;54.50;;;;;;4871112;29;20048;-82
2022/03/12 05:03:23;;;;;;;10.65;5.90;;;6.30;54.40;;;;;;4884724;29;20116;-82
2022/03/12 05:06:13;;;;;;;10.77;5.68;;;7.60;55.20;;;;;;4858911;29;20396;-81
2022/03/12 05:08:57;;;;;;;10.40;5.93;;;7.00;55.00;;;;;;4899098;29;20100;-82
2022/03/12 05:11:41;;;;;;;;;;;6.20;54.60;;;;;;4884726;29;20043;-82
2022/03/12 05:14:25;;;;;;;10.15;6.35;;;6.20;54.80;;;;;;4887748;29;20398;-82
2022/03/12 05:17:10;;;;;;;;;;;6.70;55.20;;;;;;4884919;29;20063;-82
2022/03/12 05:19:54;;;;;;;8.55;5.60;;;6.20;54.90;;;;;;4899051;29;20385;-82
2022/03/12 05:22:38;;;;;;;;;;;6.20;54.90;;;;;;4898629;29;20056;-82
2022/03/12 05:25:23;;;;;;;10.77;6.13;;;6.10;55.30;;;;;;4883713;29;20060;-82
2022/03/12 05:28:15;;;;;;;11.88;6.10;;;6.10;55.00;;;;;;4870218;29;20521;-82
2022/03/12 05:31:04;;;;;;;9.30;5.88;;;6.10;55.30;;;;;;4884333;29;20043;-82
2022/03/12 05:33:48;;;;;;;13.27;5.93;;;6.30;55.60;;;;;;4871558;29;20124;-82
2022/03/12 05:36:33;;;;;;;;;;;6.10;55.50;;;;;;4884240;29;20591;-82
2022/03/12 05:39:17;;;;;;;10.68;5.47;;;6.60;56.30;;;;;;4884374;29;19983;-82
2022/03/12 05:42:05;;;;;;;9.18;5.85;;;6.00;55.60;;;;;;4898398;29;20092;-82
2022/03/12 05:44:50;;;;;;;11.30;6.18;;;6.00;55.60;;;;;;4898019;29;20163;-82
2022/03/12 05:47:35;;;;;;;12.77;6.07;;;6.30;56.00;;;;;;4883669;29;20092;-82
2022/03/12 05:50:21;;;;;;;10.63;5.50;;;7.50;56.70;;;;;;4897842;29;20076;-82
2022/03/12 05:53:09;;;;;;;8.48;5.63;;;6.10;56.10;;;;;;4898495;29;20092;-81
2022/03/12 05:55:54;;;;;;;9.75;5.82;;;5.90;56.10;;;;;;4898343;29;20044;-82
2022/03/12 05:58:39;;;;;;;10.30;5.88;;;5.90;56.20;;;;;;4883551;29;20413;-82
2022/03/12 06:01:24;;;;;;;10.32;5.82;;;5.90;56.20;;;;;;4883433;29;20162;-82
2022/03/12 06:04:10;;;;;;;10.90;5.90;;;5.90;56.20;;;;;;4883696;29;20540;-82
2022/03/12 06:06:55;;;;;;;11.60;6.25;;;5.90;56.20;;;;;;4883732;29;20047;-84
2022/03/12 06:09:39;;;;;;;12.60;5.72;;;5.90;56.50;;;;;;4897427;29;20058;-84
2022/03/12 06:12:26;;;;;;;10.95;6.55;;;5.80;56.50;;;;;;4883641;29;20047;-84
2022/03/12 06:15:14;;;;;;;10.00;6.68;;;6.50;56.80;;;;;;4897848;29;20048;-84
2022/03/12 06:17:58;;;;;;;10.82;6.40;;;5.80;56.40;;;;;;4883671;29;20044;-84
2022/03/12 06:20:42;;;;;;;11.80;5.90;;;5.90;56.40;;;;;;4869927;29;20083;-84
2022/03/12 06:23:28;;;;;;;9.57;6.50;;;6.00;56.30;;;;;;4897178;29;20059;-86
2022/03/12 06:26:14;;;;;;;9.88;6.55;;;5.80;56.30;;;;;;4897682;29;20540;-85
2022/03/12 06:28:59;;;;;;;8.85;5.68;;;5.80;56.40;;;;;;4870591;29;20069;-83
2022/03/12 06:31:43;;;;;;;8.65;6.07;;;7.00;57.10;;;;;;4882421;29;20089;-83
2022/03/12 06:34:28;;;;;;;;;;;5.80;56.60;;;;;;4882681;29;20043;-85
2022/03/12 06:37:12;;;;;;;11.15;5.60;;;5.80;57.20;;;;;;4872693;29;19923;-84
2022/03/12 06:39:58;;;;;;;8.65;5.82;;;5.80;56.70;;;;;;4869322;29;20100;-84
2022/03/12 06:42:44;;;;;;;9.52;5.78;;;6.50;57.20;;;;;;4882022;29;20853;-84
2022/03/12 06:45:31;;;;;;;10.77;6.50;;;5.80;57.00;;;;;;4897153;29;20119;-84
2022/03/12 06:48:16;;;;;;;9.57;5.97;;;5.80;57.00;;;;;;4897323;29;20043;-83
2022/03/12 06:51:01;;;;;;;11.85;6.07;;;6.00;57.10;;;;;;4897285;29;20132;-83
2022/03/12 06:53:45;;;;;;;10.38;6.20;;;5.80;57.10;;;;;;4897034;29;20427;-83
2022/03/12 06:56:30;;;;;;;14.35;6.80;;;5.80;57.10;;;;;;4884679;29;20681;-83
2022/03/12 06:59:14;;;;;;;11.07;5.53;;;7.10;58.00;;;;;;4882523;29;20088;-84
2022/03/12 07:01:58;;;;;;;9.40;5.80;;;5.80;57.40;;;;;;4896661;29;20469;-84
2022/03/12 07:04:43;;;;;;;10.20;5.88;;;6.30;58.00;;;;;;4895931;29;20043;-84
2022/03/12 07:07:27;;;;;;;11.93;6.60;;;5.90;57.70;;;;;;4882960;29;20074;-83
2022/03/12 07:10:11;;;;;;;10.45;5.97;;;5.90;57.60;;;;;;4869872;29;20051;-85
2022/03/12 07:12:55;;;;;;;9.52;6.55;;;6.00;57.70;;;;;;4882388;29;20043;-84
2022/03/12 07:15:39;;;;;;;10.15;6.47;;;6.10;57.90;;;;;;4882603;29;20053;-84
2022/03/12 07:18:24;;;;;;;10.27;6.43;;;6.20;57.70;;;;;;4883124;29;20496;-84
2022/03/12 07:21:08;;;;;;;12.30;6.65;;;6.20;57.80;;;;;;4897368;29;20053;-83
2022/03/12 07:23:52;;;;;;;10.00;6.38;;;6.30;57.60;;;;;;4882329;29;20056;-84
2022/03/12 07:26:39;;;;;;;11.20;6.28;;;6.90;57.90;;;;;;4896947;29;20047;-84
2022/03/12 07:29:23;;;;;;;11.15;6.45;;;6.20;57.50;;;;;;4883324;29;20043;-83
2022/03/12 07:32:07;;;;;;;10.32;6.40;;;7.50;58.50;;;;;;4897317;29;20068;-83
2022/03/12 07:34:51;;;;;;;11.50;6.97;;;6.40;57.90;;;;;;4869315;29;20057;-83
2022/03/12 07:37:35;;;;;;;10.55;6.28;;;6.80;57.60;;;;;;4896559;29;20063;-85
2022/03/12 07:40:20;;;;;;;11.63;6.53;;;7.40;56.60;;;;;;4870061;29;20051;-82
2022/03/12 07:43:04;;;;;;;;;;;8.00;55.60;;;;;;4888307;29;20063;-81
2022/03/12 07:45:48;;;;;;;11.90;6.88;;;8.60;54.60;;;;;;4887118;29;19917;-82
2022/03/12 07:48:33;;;;;;;12.18;6.03;;;9.20;53.40;;;;;;4870940;29;20496;-82
2022/03/12 07:51:17;;;;;;;12.07;6.30;;;9.90;52.90;;;;;;4885004;29;20457;-82
2022/03/12 07:54:06;;;;;;;11.55;6.75;;;10.60;51.60;;;;;;4887727;29;20520;-82
2022/03/12 07:56:50;;;;;;;11.55;6.47;;;11.30;50.50;;;;;;4899814;29;20058;-83
2022/03/12 07:59:35;;;;;;;11.45;6.63;;;11.50;49.50;;;;;;4886157;29;20093;-82
2022/03/12 08:02:21;;;;;;;10.25;6.97;;;11.30;49.40;;;;;;4885994;29;20468;-83
2022/03/12 08:05:05;;;;;;;13.77;7.43;;;10.80;50.60;;;;;;4900265;29;20092;-82
2022/03/12 08:07:52;;;;;;;11.35;6.45;;;10.80;51.30;;;;;;4884466;29;20079;-82
2022/03/12 08:11:25;;;;;;;11.93;7.03;;;10.80;50.70;;;;;;4884939;29;20093;-81
2022/03/12 08:13:41;;;;;;;10.23;6.43;;;10.50;51.40;;;;;;4887601;29;20108;-83
2022/03/12 08:16:28;;;;;;;9.80;6.68;;;10.20;52.00;;;;;;4899052;29;20056;-82
2022/03/12 08:19:12;;;;;;;10.15;6.90;;;10.00;52.80;;;;;;4885391;29;20112;-82
2022/03/12 08:21:59;;;;;;;10.50;6.75;;;9.90;53.50;;;;;;4872178;29;20076;-82
2022/03/12 08:24:43;;;;;;;14.98;7.00;;;9.70;53.90;;;;;;4885198;29;20139;-83
2022/03/12 08:27:28;;;;;;;10.68;7.10;;;9.60;54.50;;;;;;4883585;29;20519;-82
2022/03/12 08:30:14;;;;;;;10.57;6.93;;;9.70;55.10;;;;;;4871809;29;20104;-81
2022/03/12 08:32:58;;;;;;;9.93;6.72;;;9.80;55.10;;;;;;4898990;29;20503;-80
2022/03/12 08:35:42;;;;;;;;;;;9.90;55.10;;;;;;4899951;29;20116;-78
2022/03/12 08:38:26;;;;;;;9.23;6.78;;;10.20;55.30;;;;;;4899262;29;19922;-80
2022/03/12 08:41:11;;;;;;;14.15;7.10;;;10.30;54.80;;;;;;4899459;29;20047;-80
2022/03/12 08:43:56;;;;;;;11.98;7.63;;;10.30;55.10;;;;;;4898908;29;20152;-80
2022/03/12 08:46:42;;;;;;;10.30;7.20;;;10.30;55.40;;;;;;4899359;29;20052;-80
2022/03/12 08:49:27;;;;;;;16.02;7.80;;;10.30;55.90;;;;;;4885343;29;20073;-80
2022/03/12 08:52:12;;;;;;;12.35;7.80;;;10.40;56.10;;;;;;4898020;29;20454;-81
2022/03/12 08:54:56;;;;;;;11.50;7.88;;;10.40;56.10;;;;;;4883989;29;20064;-80
2022/03/12 08:57:40;;;;;;;12.70;7.82;;;10.40;56.30;;;;;;4871906;29;20068;-81
2022/03/12 09:00:24;;;;;;;;;;;10.60;56.50;;;;;;4899327;29;20069;-79
2022/03/12 09:03:09;;;;;;;14.02;7.95;;;10.60;56.30;;;;;;4898359;29;20154;-80
2022/03/12 09:05:54;;;;;;;16.23;7.45;;;10.60;56.40;;;;;;4898567;29;20483;-80
2022/03/12 09:08:38;;;;;;;11.50;7.50;;;10.70;56.50;;;;;;4898249;29;20086;-80
2022/03/12 09:11:23;;;;;;;17.25;8.23;;;10.70;56.60;;;;;;4896890;29;20437;-81
2022/03/12 09:14:08;;;;;;;12.32;7.63;;;10.80;56.60;;;;;;4857983;29;20051;-81
2022/03/12 09:16:52;;;;;;;12.68;7.95;;;10.80;56.60;;;;;;4898220;29;20048;-80
2022/03/12 09:19:36;;;;;;;11.25;7.43;;;10.80;57.10;;;;;;4899013;29;20075;-79
2022/03/12 09:22:20;;;;;;;12.48;7.80;;;10.90;57.50;;;;;;4871370;29;20060;-81
2022/03/12 09:25:13;;;;;;;;;;;10.90;57.70;;;;;;4884139;29;20100;-80
2022/03/12 09:27:58;;;;;;;18.58;7.43;;;11.00;57.70;;;;;;4897255;29;19944;-80
2022/03/12 09:30:42;;;;;;;15.43;8.63;;;11.00;58.20;;;;;;4897583;29;20063;-81
2022/03/12 09:33:27;;;;;;;12.27;8.20;;;11.10;58.30;;;;;;4884213;29;20044;-81
2022/03/12 09:36:11;;;;;;;13.10;7.97;;;11.30;58.50;;;;;;4898025;29;20662;-81
2022/03/12 09:38:56;;;;;;;11.93;7.38;;;;;;;;;;4883784;29;20059;-81
2022/03/12 09:41:40;;;;;;;12.50;7.65;;;11.60;58.10;;;;;;4884240;29;20044;-80
2022/03/12 09:44:24;;;;;;;14.02;8.27;;;11.70;58.80;;;;;;4898327;29;20101;-81
2022/03/12 09:47:09;;;;;;;12.30;7.57;;;11.80;58.70;;;;;;4897906;29;20080;-81
2022/03/12 09:49:53;;;;;;;13.63;7.50;;;11.90;58.90;;;;;;4898153;29;20052;-82
2022/03/12 09:52:37;;;;;;;;;;;12.00;59.00;;;;;;4898613;29;20050;-81
2022/03/12 09:55:22;;;;;;;11.35;8.00;;;12.10;59.80;;;;;;4883926;29;19944;-82
2022/03/12 09:58:06;;;;;;;14.55;7.65;;;12.20;59.40;;;;;;4903073;29;20062;-81
2022/03/12 10:00:51;;;;;;;16.70;7.82;;;12.30;60.00;;;;;;4929514;29;20119;-81
2022/03/12 10:03:37;;;;;;;;;;;12.40;60.30;;;;;;4916756;29;20071;-81
2022/03/12 10:06:22;;;;;;;10.27;7.47;;;12.40;61.40;;;;;;4901957;29;19966;-80
2022/03/12 10:09:08;;;;;;;11.60;7.78;;;12.50;60.60;;;;;;4916219;29;20111;-81
2022/03/12 10:11:54;;;;;;;12.02;7.55;;;12.60;61.20;;;;;;4916836;29;20047;-82
2022/03/12 10:14:38;;;;;;;10.90;7.03;;;12.70;61.90;;;;;;4902235;29;20044;-81
2022/03/12 10:17:22;;;;;;;14.40;8.05;;;12.70;62.60;;;;;;4901906;29;20445;-82
2022/03/12 10:20:10;;;;;;;13.27;8.27;;;12.70;63.50;;;;;;4920603;29;20091;-81
2022/03/12 10:22:55;;;;;;;13.52;7.97;;;12.70;64.00;;;;;;4921061;29;20103;-81
2022/03/12 10:25:39;;;;;;;11.30;7.82;;;12.80;64.00;;;;;;4935589;29;20042;-82
2022/03/12 10:28:24;;;;;;;13.20;8.65;;;12.80;64.40;;;;;;4908037;29;20567;-80
2022/03/12 10:31:09;;;;;;;14.10;8.20;;;12.90;64.70;;;;;;4915624;29;20068;-81
2022/03/12 10:34:13;;;;;;;9.95;7.25;;;12.90;64.90;;;;;;4901508;29;20463;-78
2022/03/12 10:36:57;;;;;;;14.60;8.15;;;12.90;65.60;;;;;;4920778;29;20091;-80
2022/03/12 10:39:41;;;;;;;13.15;8.13;;;13.00;65.30;;;;;;4935344;29;20108;-83
2022/03/12 10:42:25;;;;;;;;;;;13.10;65.80;;;;;;4935315;29;20115;-80
2022/03/12 10:45:13;;;;;;;10.65;8.30;;;13.20;66.70;;;;;;4934814;29;20530;-80
2022/03/12 10:48:03;;;;;;;13.32;8.43;;;13.20;65.90;;;;;;4935208;29;20433;-80
2022/03/12 10:50:50;;;;;;;13.38;8.32;;;13.30;66.10;;;;;;4935155;29;20047;-80
2022/03/12 10:53:35;;;;;;;17.08;8.43;;;13.40;66.10;;;;;;4920704;29;20131;-79
2022/03/12 10:56:19;;;;;;;11.93;8.52;;;13.60;66.10;;;;;;4934333;29;20118;-80
2022/03/12 10:59:09;;;;;;;;;;;13.80;66.40;;;;;;4920676;29;20428;-82
2022/03/12 11:02:00;;;;;;;13.73;8.55;;;13.90;66.90;;;;;;4920708;29;20053;-80
2022/03/12 11:04:44;;;;;;;13.40;8.75;;;14.00;65.60;;;;;;4935216;29;20094;-81
2022/03/12 11:07:30;;;;;;;12.35;7.82;;;14.00;65.90;;;;;;4906886;29;20046;-81
2022/03/12 11:10:31;;;;;;;11.63;7.85;;;14.00;67.30;;;;;;4901409;29;20059;-82
2022/03/12 11:13:58;;;;;;;15.52;7.68;;;14.10;67.80;;;;;;4933664;29;20403;-80
2022/03/12 11:16:41;;;;;;;10.95;5.90;;;14.10;69.50;;;;;;4933771;29;20078;-79
2022/03/12 11:19:37;;;;;;;11.52;6.60;;;14.10;70.50;;;;;;4919980;29;20090;-80
2022/03/12 11:22:22;;;;;;;14.57;7.53;;;14.30;70.80;;;;;;4919856;29;20051;-79
2022/03/12 11:25:09;;;;;;;10.73;6.75;;;14.30;71.10;;;;;;4921417;29;20042;-79
2022/03/12 11:27:59;;;;;;;9.60;6.45;;;14.20;70.90;;;;;;4924862;29;20062;-79
2022/03/12 11:30:44;;;;;;;10.48;6.13;;;14.00;72.10;;;;;;4924221;29;20115;-80
2022/03/12 11:33:28;;;;;;;9.45;5.97;;;14.00;73.10;;;;;;4923703;29;20836;-80
2022/03/12 11:36:15;;;;;;;8.05;5.90;;;14.00;73.50;;;;;;4923541;29;20042;-80
2022/03/12 11:38:59;;;;;;;11.57;6.13;;;14.20;73.20;;;;;;4938561;29;20050;-81
2022/03/12 11:42:28;;;;;;;8.88;5.65;;;14.30;73.30;;;;;;4916653;29;20059;-80
2022/03/12 11:45:15;;;;;;;8.77;6.22;;;14.40;73.90;;;;;;4898581;29;20055;-81
2022/03/12 11:47:59;;;;;;;10.38;6.70;;;14.50;72.90;;;;;;4903831;29;20131;-81
2022/03/12 11:50:43;;;;;;;14.32;6.50;;;14.70;73.10;;;;;;4918871;29;20404;-80
2022/03/12 11:53:36;;;;;;;12.35;6.15;;;14.80;72.50;;;;;;4918385;29;20082;-80
2022/03/12 11:56:25;;;;;;;9.63;6.30;;;;;;;;;;4918365;29;20043;-80
2022/03/12 11:59:10;;;;;;;9.48;5.60;;;14.70;72.00;;;;;;4919052;29;20263;-80
2022/03/12 12:02:01;;;;;;;11.70;6.63;;;14.10;72.30;;;;;;4918863;29;20039;-80
2022/03/12 12:04:45;;;;;;;8.95;6.03;;;14.70;72.40;;;;;;4904778;29;20047;-80
2022/03/12 12:07:36;;;;;;;10.80;6.22;;;14.80;73.30;;;;;;4904181;29;20068;-81
2022/03/12 12:10:32;;;;;;;13.48;5.97;;;14.80;71.30;;;;;;4918332;29;20042;-81
2022/03/12 12:13:18;;;;;;;9.38;5.78;;;14.80;80.70;;;;;;4903977;29;20471;-81
2022/03/12 12:16:04;;;;;;;8.73;6.38;;;15.00;73.10;;;;;;4904516;29;20043;-81
2022/03/12 12:18:49;;;;;;;12.02;6.32;;;15.00;80.90;;;;;;4904705;29;20051;-81
2022/03/12 12:21:33;;;;;;;11.90;7.68;;;14.90;83.50;;;;;;4903804;29;20190;-81
2022/03/12 12:24:27;;;;;;;10.98;6.90;;;15.00;71.20;;;;;;4890639;29;20173;-81
2022/03/12 12:27:14;;;;;;;10.43;6.47;;;15.00;72.10;;;;;;4918651;29;20141;-80
2022/03/12 12:29:59;;;;;;;9.77;7.07;;;14.90;72.20;;;;;;4903841;29;20079;-80
2022/03/12 12:32:48;;;;;;;13.13;7.60;;;14.90;72.10;;;;;;4904295;29;20046;-80
2022/03/12 12:35:32;;;;;;;12.32;7.55;;;14.90;72.30;;;;;;4918042;29;20039;-80
2022/03/12 12:38:21;;;;;;;10.55;7.25;;;14.90;72.60;;;;;;4889872;29;20046;-81
2022/03/12 12:41:06;;;;;;;10.00;7.13;;;15.00;72.20;;;;;;4904037;29;20043;-81
2022/03/12 12:44:06;;;;;;;9.23;6.63;;;15.00;72.30;;;;;;4918344;29;20055;-81
2022/03/12 12:46:53;;;;;;;10.52;7.03;;;15.10;72.30;;;;;;4918295;29;20095;-80
2022/03/12 12:49:43;;;;;;;11.02;6.40;;;15.10;72.30;;;;;;4903217;29;20039;-80
2022/03/12 12:52:35;;;;;;;9.40;6.30;;;15.10;71.90;;;;;;4917640;29;20464;-81
2022/03/12 12:55:24;;;;;;;12.10;6.95;;;15.10;72.00;;;;;;4917632;29;20039;-81
2022/03/12 12:58:09;;;;;;;15.02;6.85;;;15.10;71.90;;;;;;4903646;29;20059;-80
2022/03/12 13:01:01;;;;;;;11.50;6.70;;;15.00;71.80;;;;;;4918252;29;20079;-80
2022/03/12 13:03:47;;;;;;;10.20;6.05;;;14.90;72.20;;;;;;4903655;29;20094;-80
2022/03/12 13:06:40;;;;;;;8.57;6.03;;;14.80;72.00;;;;;;4917339;29;20054;-81
2022/03/12 13:09:38;;;;;;;12.70;6.10;;;14.80;71.70;;;;;;4902910;29;20058;-80
2022/03/12 13:12:42;;;;;;;11.55;6.70;;;14.90;71.60;;;;;;4917198;29;20072;-80
2022/03/12 13:15:36;;;;;;;8.52;6.07;;;15.00;72.70;;;;;;4902821;29;20043;-81
2022/03/12 13:18:21;;;;;;;9.02;6.10;;;15.20;71.70;;;;;;4917171;29;20043;-82
2022/03/12 13:21:24;;;;;;;10.35;6.72;;;15.30;70.80;;;;;;4903219;29;20131;-81
2022/03/12 13:24:20;;;;;;;11.38;6.50;;;15.30;70.10;;;;;;4903213;29;20117;-81
2022/03/12 13:27:06;;;;;;;11.50;6.38;;;15.40;70.80;;;;;;4917415;29;20457;-81
2022/03/12 13:30:10;;;;;;;7.88;5.63;;;15.50;70.90;;;;;;4903329;29;20412;-80
2022/03/12 13:33:02;;;;;;;11.80;6.85;;;15.60;70.30;;;;;;4917561;29;20058;-82
2022/03/12 13:35:47;;;;;;;9.98;6.05;;;15.70;70.50;;;;;;4902519;29;20448;-81
2022/03/12 13:38:31;;;;;;;8.60;5.43;;;15.70;70.10;;;;;;4902300;29;20092;-82
2022/03/12 13:41:18;;;;;;;10.60;5.47;;;15.70;69.60;;;;;;4902875;29;20460;-81
2022/03/12 13:44:03;;;;;;;9.05;5.45;;;15.70;69.30;;;;;;4902727;29;20080;-81
2022/03/12 13:46:49;;;;;;;10.25;5.40;;;15.60;69.00;;;;;;4902358;29;20046;-83
2022/03/12 13:49:40;;;;;;;8.75;4.85;;;15.60;68.90;;;;;;4901237;29;20034;-81
2022/03/12 13:52:25;;;;;;;7.85;4.47;;;15.60;68.90;;;;;;4902469;29;20043;-82
2022/03/12 13:55:10;;;;;;;8.35;4.85;;;15.50;68.80;;;;;;4902699;29;20103;-81
2022/03/12 13:58:01;;;;;;;7.95;4.85;;;15.50;68.50;;;;;;4902670;29;20092;-81
2022/03/12 14:00:47;;;;;;;8.68;4.35;;;15.50;67.60;;;;;;4916458;29;20153;-81
2022/03/12 14:03:42;;;;;;;7.10;4.65;;;15.50;67.90;;;;;;4902142;29;20050;-81
2022/03/12 14:06:39;;;;;;;8.48;5.15;;;15.60;67.90;;;;;;4916731;29;20046;-82
2022/03/12 14:09:25;;;;;;;8.27;5.35;;;15.60;67.80;;;;;;4902554;29;20038;-81
2022/03/12 14:12:25;;;;;;;7.38;5.05;;;15.50;68.20;;;;;;4916830;29;20412;-81
2022/03/12 14:15:13;;;;;;;7.50;5.88;;;15.50;68.60;;;;;;4916724;29;20075;-81
2022/03/12 14:17:59;;;;;;;9.25;5.90;;;15.40;68.40;;;;;;4902884;29;20084;-81
2022/03/12 14:20:43;;;;;;;7.70;5.13;;;15.30;69.10;;;;;;4916106;29;20042;-81
2022/03/12 14:23:27;;;;;;;10.65;5.70;;;15.30;69.10;;;;;;4902130;29;20127;-81
2022/03/12 14:26:13;;;;;;;11.30;4.97;;;15.20;68.80;;;;;;4889278;29;20180;-81
2022/03/12 14:28:58;;;;;;;6.47;4.95;;;15.10;68.40;;;;;;4916859;29;20039;-81
2022/03/12 14:31:42;;;;;;;9.65;5.35;;;15.10;68.30;;;;;;4901524;29;20063;-81
2022/03/12 14:34:29;;;;;;;12.68;5.13;;;15.50;68.30;;;;;;4916541;29;20107;-81
2022/03/12 14:37:13;;;;;;;8.43;5.72;;;14.90;68.60;;;;;;4916405;29;20064;-81
2022/03/12 14:39:58;;;;;;;8.70;5.90;;;14.90;68.90;;;;;;4888961;29;20047;-81
2022/03/12 14:42:44;;;;;;;8.57;5.50;;;14.80;69.00;;;;;;4915763;29;20059;-80